Latest Weather Observations for Amberley

IDQ60901

Issued at 2:01 pm EST Tuesday 28 May 2024 (issued every 10 minutes, with the page automatically refreshed every 10 minutes)

About weather observations | Map of Brisbane area stations | Latest observations for Brisbane area | Other Formats
Station Details ID: 040004 Name: AMBERLEY AMO Lat: -27.63 Lon: 152.71 Height: 24.2 m
Data from the previous 72 hours. | See also: Recent months at Amberley
Date/Time
EST
Temp
°C
App
Temp
°C
Dew
Point
°C
Rel
Hum
%
Delta-T
°C
Wind Press
QNH
hPa
Press
MSL
hPa
Rain since
9am
mm
Dir  Spd
km/h
Gust
km/h
Spd
kts
Gust
kts
28/01:30pm 22.8 22.8 15.1 62 4.6 NNW 9 15 5 8 1024.6 1024.6 0.0
28/01:00pm 22.7 22.9 14.8 61 4.7 NE 7 11 4 6 1024.8 1024.8 0.0
28/12:30pm 21.1 20.9 14.7 67 3.8 NW 9 13 5 7 1025.3 1025.3 0.0
28/12:00pm 20.7 21.4 14.4 67 3.7 NW 4 9 2 5 1025.8 1025.8 0.0
28/11:30am 19.2 19.7 15.1 77 2.4 WSW 6 7 3 4 1026.2 1026.2 0.0
28/11:00am 17.8 19.2 15.4 86 1.4 WSW 2 7 1 4 1026.7 1026.7 0.0
28/10:30am 16.7 18.4 15.1 90 0.9 CALM 0 0 0 0 1026.9 1026.9 0.0
28/10:00am 16.3 17.2 15.2 93 0.6 WNW 4 7 2 4 1027.2 1027.2 0.0
28/09:30am 15.9 17.0 15.6 98 0.2 WNW 4 7 2 4 1027.1 1027.1 0.0
28/09:00am 14.7 15.8 14.7 100 0.0 NNW 2 7 1 4 1026.9 1026.9 0.0
28/08:30am 14.1 15.4 14.1 100 0.0 CALM 0 6 0 3 1026.7 1026.7 0.0
28/08:12am 13.1 14.1 13.1 100 0.0 CALM 0 0 0 0 1026.5 1026.5 0.0
28/08:00am 12.6 13.4 12.6 100 0.0 CALM 0 0 0 0 1026.4 1026.4 0.0
28/07:30am 12.2 12.1 12.2 100 0.0 NW 4 9 2 5 1026.1 1026.1 0.0
28/07:27am 12.1 11.6 12.1 100 0.0 NW 6 9 3 5 1026.0 1026.0 0.0
28/07:00am 9.9 9.5 9.9 100 0.0 WNW 2 9 1 5 1025.8 1025.8 0.0
28/06:30am 9.6 9.5 9.6 100 0.0 CALM 0 0 0 0 1025.4 1025.4 0.0
28/06:00am 10.2 10.3 10.2 100 0.0 CALM 0 0 0 0 1024.9 1024.9 0.0
28/05:55am 10.6 10.8 10.6 100 0.0 CALM 0 0 0 0 1024.8 1024.8 0.0
28/05:54am 10.6 10.8 10.6 100 0.0 CALM 0 0 0 0 1024.8 1024.8 0.0
28/05:35am 10.2 10.3 10.2 100 0.0 CALM 0 2 0 1 1024.7 1024.7 0.0
28/05:30am 10.4 10.2 10.4 100 0.0 W 2 6 1 3 1024.6 1024.6 0.0
28/05:06am 10.8 9.7 10.8 100 0.0 NW 7 9 4 5 1024.3 1024.3 0.0
28/05:00am 10.7 9.2 10.7 100 0.0 NW 9 11 5 6 1024.3 1024.3 0.0
28/04:52am 10.5 8.6 10.5 100 0.0 NW 11 13 6 7 1024.3 1024.3 0.0
28/04:30am 10.7 9.2 10.7 100 0.0 ENE 9 11 5 6 1024.3 1024.3 0.0
28/04:19am 10.6 9.7 10.6 100 0.0 ENE 6 9 3 5 1024.2 1024.2 0.0
28/04:12am 10.9 11.2 10.9 100 0.0 CALM 0 7 0 4 1024.3 1024.3 0.0
28/04:04am 11.3 11.7 11.3 100 0.0 CALM 0 0 0 0 1024.3 1024.3 0.0
28/04:00am 11.3 11.7 11.3 100 0.0 CALM 0 6 0 3 1024.2 1024.2 0.0
28/03:50am 10.9 10.4 10.9 100 0.0 ENE 4 7 2 4 1024.1 1024.1 0.0
28/03:36am 11.6 12.1 11.6 100 0.0 CALM 0 0 0 0 1024.1 1024.1 0.0
28/03:30am 11.9 12.5 11.9 100 0.0 CALM 0 0 0 0 1024.2 1024.2 0.0
28/03:25am 11.9 12.5 11.9 100 0.0 CALM 0 0 0 0 1024.2 1024.2 0.0
28/03:12am 12.1 12.8 12.1 100 0.0 CALM 0 0 0 0 1024.1 1024.1 0.0
28/03:11am 12.1 12.8 12.1 100 0.0 CALM 0 0 0 0 1024.1 1024.1 0.0
28/03:10am 12.0 12.6 12.0 100 0.0 CALM 0 0 0 0 1024.2 1024.2 0.0
28/03:01am 11.9 12.4 11.7 99 0.1 CALM 0 0 0 0 1024.2 1024.2 0.0
28/03:00am 12.0 12.6 11.8 99 0.1 CALM 0 0 0 0 1024.1 1024.1 0.0
28/02:30am 12.5 12.4 12.2 98 0.2 ENE 4 6 2 3 1024.1 1024.1 0.0
28/02:00am 13.1 12.6 12.8 98 0.2 ENE 7 9 4 5 1024.2 1024.2 0.0
28/01:30am 13.5 12.8 13.2 98 0.2 ENE 9 9 5 5 1024.2 1024.2 0.0
28/01:00am 13.9 13.6 13.4 97 0.3 ENE 7 7 4 4 1024.3 1024.3 0.0
28/12:30am 14.7 15.9 13.9 95 0.4 CALM 0 0 0 0 1024.3 1024.3 0.0
28/12:00am 14.9 14.9 14.1 95 0.4 ENE 7 7 4 4 1024.4 1024.4 0.0
 
Date/Time
EST
Temp
°C
App
Temp
°C
Dew
Point
°C
Rel
Hum
%
Delta-T
°C
Wind Press
QNH
hPa
Press
MSL
hPa
Rain since
9am
mm
Dir  Spd
km/h
Gust
km/h
Spd
kts
Gust
kts
27/11:30pm 14.9 14.9 14.3 96 0.3 ENE 7 11 4 6 1024.5 1024.5 0.0
27/11:00pm 14.9 16.3 14.3 96 0.3 CALM 0 0 0 0 1024.5 1024.5 0.0
27/10:30pm 14.8 16.2 14.3 97 0.3 CALM 0 0 0 0 1024.6 1024.6 0.0
27/10:00pm 14.7 14.9 14.2 97 0.3 ENE 6 7 3 4 1024.4 1024.4 0.0
27/09:30pm 14.4 14.0 14.1 98 0.2 ENE 9 11 5 6 1024.2 1024.2 0.0
27/09:00pm 14.4 14.3 13.9 97 0.3 ENE 7 7 4 4 1024.1 1024.1 0.0
27/08:30pm 14.0 14.7 13.5 97 0.3 ENE 2 9 1 5 1024.1 1024.1 0.0
27/08:00pm 15.1 16.4 14.0 93 0.6 CALM 0 0 0 0 1023.8 1023.8 0.0
27/07:30pm 15.1 14.9 13.5 90 0.9 ENE 7 9 4 5 1023.5 1023.5 0.0
27/07:00pm 17.5 17.6 14.4 82 1.8 ENE 7 9 4 5 1023.3 1023.3 0.0
27/06:30pm 18.2 17.9 14.5 79 2.1 ENE 9 9 5 5 1022.9 1022.9 0.0
27/06:00pm 18.7 18.0 14.4 76 2.5 E 11 13 6 7 1022.6 1022.6 0.0
27/05:30pm 19.3 18.6 14.3 73 2.9 NE 11 15 6 8 1022.2 1022.2 0.0
27/05:00pm 21.1 20.7 14.0 64 4.1 NE 9 9 5 5 1022.0 1022.0 0.0
27/04:30pm 22.5 22.0 13.8 58 5.1 ENE 9 13 5 7 1021.8 1021.8 0.0
27/04:00pm 23.5 22.3 13.9 55 5.6 ENE 13 17 7 9 1021.6 1021.6 0.0
27/03:30pm 24.2 23.0 14.0 53 6.0 NNE 13 17 7 9 1021.6 1021.6 0.0
27/03:00pm 23.9 23.6 13.2 51 6.2 NE 7 13 4 7 1021.5 1021.5 0.0
27/02:30pm 23.8 23.5 12.8 50 6.3 NE 6 11 3 6 1021.6 1021.6 0.0
27/02:00pm 23.7 22.9 13.0 51 6.2 N 9 15 5 8 1021.6 1021.6 0.0
27/01:30pm 24.0 23.1 12.6 49 6.5 NNE 9 13 5 7 1021.8 1021.8 0.0
27/01:00pm 23.2 22.2 13.4 54 5.7 E 11 15 6 8 1022.0 1022.0 0.0
27/12:30pm 22.6 22.6 14.2 59 4.9 E 7 9 4 5 1022.4 1022.4 0.0
27/12:00pm 22.5 23.0 14.9 62 4.5 SSE 6 9 3 5 1023.0 1023.0 0.0
27/11:30am 21.4 22.4 15.3 68 3.6 WSW 4 9 2 5 1023.6 1023.6 0.0
27/11:00am 21.5 22.4 16.5 73 3.0 WSW 7 9 4 5 1024.0 1024.0 0.0
27/10:30am 18.8 19.5 15.7 82 1.8 SSW 6 9 3 5 1024.4 1024.4 0.0
27/10:00am 17.4 18.3 16.1 92 0.8 S 6 7 3 4 1024.7 1024.7 0.0
27/09:30am 16.1 16.7 15.3 95 0.5 SSW 6 9 3 5 1025.0 1025.0 0.0
27/09:00am 14.1 14.6 14.1 100 0.0 NW 4 7 2 4 1025.0 1025.0 0.2
27/08:30am 13.2 12.5 13.2 100 0.0 NW 9 9 5 5 1024.9 1024.9 0.2
27/08:23am 13.2 13.4 13.2 100 0.0 NW 4 9 2 5 1024.9 1024.9 0.2
27/08:09am 13.1 14.1 13.1 100 0.0 CALM 0 0 0 0 1024.7 1024.7 0.2
27/08:00am 12.0 12.2 12.0 100 0.0 NW 2 6 1 3 1024.7 1024.7 0.2
27/07:53am 11.7 11.1 11.7 100 0.0 NW 6 7 3 4 1024.7 1024.7 0.2
27/07:30am 11.0 10.2 11.0 100 0.0 NW 6 7 3 4 1024.6 1024.6 0.2
27/07:00am 10.2 10.3 10.2 100 0.0 CALM 0 0 0 0 1024.3 1024.3 0.2
27/06:30am 9.4 9.3 9.4 100 0.0 CALM 0 0 0 0 1024.0 1024.0 0.2
27/06:00am 9.8 9.8 9.8 100 0.0 CALM 0 0 0 0 1023.8 1023.8 0.2
27/05:32am 9.7 9.7 9.7 100 0.0 CALM 0 0 0 0 1023.4 1023.4 0.2
27/05:30am 9.7 9.7 9.7 100 0.0 CALM 0 0 0 0 1023.4 1023.4 0.2
27/05:04am 9.9 9.9 9.9 100 0.0 CALM 0 0 0 0 1023.2 1023.2 0.2
27/05:00am 9.9 9.9 9.9 100 0.0 CALM 0 0 0 0 1023.1 1023.1 0.2
27/04:58am 10.1 10.2 10.1 100 0.0 CALM 0 0 0 0 1023.1 1023.1 0.2
27/04:44am 10.0 9.3 10.0 100 0.0 NNW 4 6 2 3 1022.9 1022.9 0.2
27/04:30am 10.2 9.2 10.2 100 0.0 NNW 6 7 3 4 1022.9 1022.9 0.2
27/04:13am 10.5 9.6 10.5 100 0.0 NNW 6 7 3 4 1022.9 1022.9 0.2
27/04:10am 10.4 9.4 10.4 100 0.0 NNW 6 7 3 4 1022.9 1022.9 0.2
27/04:00am 10.3 8.7 10.3 100 0.0 NNW 9 11 5 6 1022.9 1022.9 0.0
27/03:30am 10.0 10.1 10.0 100 0.0 CALM 0 0 0 0 1023.0 1023.0 0.0
27/03:23am 10.1 10.2 10.1 100 0.0 CALM 0 0 0 0 1023.1 1023.1 0.0
27/03:15am 10.2 10.3 10.2 100 0.0 CALM 0 0 0 0 1023.1 1023.1 0.0
27/03:08am 10.2 10.3 10.2 100 0.0 CALM 0 0 0 0 1023.1 1023.1 0.0
27/03:00am 10.1 10.2 10.1 100 0.0 CALM 0 0 0 0 1023.2 1023.2 0.0
27/02:55am 10.3 10.4 10.3 100 0.0 CALM 0 0 0 0 1023.2 1023.2 0.0
27/02:40am 10.8 11.1 10.8 100 0.0 CALM 0 0 0 0 1023.3 1023.3 0.0
27/02:38am 10.8 11.1 10.8 100 0.0 CALM 0 0 0 0 1023.3 1023.3 0.0
27/02:30am 10.5 10.7 10.5 100 0.0 CALM 0 0 0 0 1023.4 1023.4 0.0
27/02:15am 11.0 11.3 11.0 100 0.0 CALM 0 0 0 0 1023.4 1023.4 0.0
27/02:00am 10.8 11.0 10.6 99 0.1 CALM 0 0 0 0 1023.5 1023.5 0.0
27/01:54am 10.9 11.1 10.7 99 0.1 CALM 0 0 0 0 1023.6 1023.6 0.0
27/01:30am 11.5 11.9 11.3 99 0.1 CALM 0 0 0 0 1023.7 1023.7 0.0
27/01:00am 11.3 10.6 11.3 100 0.0 NW 6 7 3 4 1023.8 1023.8 0.0
27/12:45am 11.0 10.0 11.0 100 0.0 NW 7 9 4 5 1023.7 1023.7 0.0
27/12:30am 11.1 10.1 11.1 100 0.0 NW 7 9 4 5 1023.6 1023.6 0.0
27/12:21am 11.1 11.1 11.1 100 0.0 WNW 2 7 1 4 1023.7 1023.7 0.0
27/12:00am 11.3 10.4 11.3 100 0.0 WNW 7 9 4 5 1023.8 1023.8 0.0
 
Date/Time
EST
Temp
°C
App
Temp
°C
Dew
Point
°C
Rel
Hum
%
Delta-T
°C
Wind Press
QNH
hPa
Press
MSL
hPa
Rain since
9am
mm
Dir  Spd
km/h
Gust
km/h
Spd
kts
Gust
kts
26/11:56pm 11.4 10.1 11.4 100 0.0 WNW 9 9 5 5 1023.8 1023.8 0.0
26/11:35pm 11.4 10.1 11.4 100 0.0 WNW 9 11 5 6 1023.8 1023.8 0.0
26/11:30pm 11.4 10.1 11.4 100 0.0 W 9 11 5 6 1023.9 1023.9 0.0
26/11:00pm 12.3 11.6 12.1 99 0.1 E 7 9 4 5 1023.9 1023.9 0.0
26/10:30pm 12.7 11.8 12.5 99 0.1 E 9 11 5 6 1023.9 1023.9 0.0
26/10:00pm 12.7 13.1 12.4 98 0.2 E 2 7 1 4 1023.9 1023.9 0.0
26/09:30pm 13.5 12.7 12.9 96 0.3 E 9 11 5 6 1023.9 1023.9 0.0
26/09:01pm 14.7 15.0 14.4 98 0.2 E 6 6 3 3 1023.9 1023.9 0.0
26/09:00pm 14.6 14.8 14.3 98 0.2 E 6 6 3 3 1023.9 1023.9 0.0
26/08:42pm 14.1 15.2 13.6 97 0.3 CALM 0 0 0 0 1023.8 1023.8 0.0
26/08:30pm 14.5 15.7 13.9 96 0.3 CALM 0 0 0 0 1023.7 1023.7 0.0
26/08:00pm 15.4 16.8 14.3 93 0.6 CALM 0 0 0 0 1023.6 1023.6 0.0
26/07:30pm 16.8 18.6 15.5 92 0.8 CALM 0 6 0 3 1023.5 1023.5 0.0
26/07:00pm 17.1 17.1 15.3 89 1.0 ENE 9 11 5 6 1023.1 1023.1 0.0
26/06:30pm 17.6 17.4 15.6 88 1.2 E 11 13 6 7 1022.9 1022.9 0.0
26/06:00pm 17.6 17.1 14.9 84 1.6 E 11 13 6 7 1022.4 1022.4 0.0
26/05:30pm 19.0 18.5 14.9 77 2.4 E 11 15 6 8 1022.1 1022.1 0.0
26/05:00pm 20.1 20.9 15.9 77 2.5 N 6 19 3 10 1021.8 1021.8 0.0
26/04:30pm 20.3 22.1 16.5 79 2.3 ENE 2 6 1 3 1021.6 1021.6 0.0
26/04:00pm 21.1 21.5 15.2 69 3.5 ENE 7 9 4 5 1021.3 1021.3 0.0
26/03:30pm 22.1 22.5 14.7 63 4.4 E 6 9 3 5 1021.1 1021.1 0.0
26/03:00pm 22.9 22.9 14.2 58 5.1 ENE 7 9 4 5 1021.2 1021.2 0.0
26/02:30pm 23.3 23.3 14.3 57 5.3 ENE 7 13 4 7 1021.5 1021.5 0.0
26/02:00pm 24.4 24.2 14.8 55 5.7 NNE 9 19 5 10 1021.7 1021.7 0.0
26/01:30pm 23.7 23.2 13.8 53 5.8 WNW 9 13 5 7 1021.9 1021.9 0.0
26/01:00pm 23.8 24.1 15.0 57 5.2 N 7 13 4 7 1022.4 1022.4 0.0
26/12:30pm 21.7 21.9 14.6 64 4.2 NNW 7 11 4 6 1023.0 1023.0 0.0
26/12:00pm 23.5 23.9 16.3 64 4.4 N 9 15 5 8 1023.4 1023.4 0.0
26/11:30am 21.8 22.1 14.9 65 4.1 ENE 7 13 4 7 1023.9 1023.9 0.0
26/11:00am 21.5 22.3 14.9 66 3.9 SSW 4 9 2 5 1024.3 1024.3 0.0
26/10:30am 21.3 22.6 15.2 68 3.6 W 2 9 1 5 1024.7 1024.7 0.0
26/10:00am 20.1 20.6 15.5 75 2.7 WNW 7 11 4 6 1025.0 1025.0 0.0
26/09:30am 19.2 20.2 15.3 78 2.3 WNW 4 9 2 5 1025.1 1025.1 0.0
26/09:00am 17.8 18.2 15.2 85 1.5 NW 7 9 4 5 1025.1 1025.1 4.8
26/08:30am 16.4 16.8 15.3 93 0.6 NW 7 9 4 5 1025.0 1025.0 4.8
26/08:00am 14.7 14.8 14.4 98 0.2 NW 7 9 4 5 1024.9 1024.9 4.8
26/07:30am 13.7 14.9 13.7 100 0.0 CALM 0 0 0 0 1024.6 1024.6 4.8
26/07:19am 12.9 13.8 12.9 100 0.0 CALM 0 0 0 0 1024.4 1024.4 4.8
26/07:02am 12.7 13.5 12.7 100 0.0 CALM 0 0 0 0 1024.3 1024.3 4.8
26/07:00am 12.6 13.4 12.6 100 0.0 CALM 0 0 0 0 1024.3 1024.3 4.8
26/06:54am 12.5 13.3 12.5 100 0.0 CALM 0 0 0 0 1024.2 1024.2 4.8
26/06:46am 12.3 13.0 12.3 100 0.0 CALM 0 0 0 0 1024.0 1024.0 4.8
26/06:30am 12.1 12.8 12.1 100 0.0 CALM 0 0 0 0 1023.9 1023.9 4.8
26/06:00am 12.5 12.5 12.5 100 0.0 NW 4 9 2 5 1023.8 1023.8 4.8
26/05:30am 12.5 12.5 12.5 100 0.0 NW 4 7 2 4 1023.6 1023.6 4.8
26/05:28am 12.4 12.8 12.4 100 0.0 NW 2 7 1 4 1023.6 1023.6 4.8
26/05:12am 12.4 13.2 12.4 100 0.0 CALM 0 0 0 0 1023.5 1023.5 4.8
26/05:00am 12.8 13.7 12.8 100 0.0 CALM 0 0 0 0 1023.5 1023.5 4.8
26/04:30am 13.1 13.7 13.1 100 0.0 NW 2 6 1 3 1023.2 1023.2 4.8
26/04:00am 13.1 12.7 13.1 100 0.0 NW 7 7 4 4 1023.3 1023.3 4.8
26/03:30am 12.7 12.2 12.7 100 0.0 NW 7 9 4 5 1023.5 1023.5 4.8
26/03:00am 12.5 12.0 12.5 100 0.0 NW 7 7 4 4 1023.6 1023.6 4.8
26/02:30am 12.3 13.0 12.3 100 0.0 CALM 0 0 0 0 1023.5 1023.5 4.8
26/02:00am 12.6 13.0 12.6 100 0.0 NW 2 7 1 4 1023.7 1023.7 4.8
26/01:30am 13.0 13.2 13.0 100 0.0 NW 4 7 2 4 1023.9 1023.9 4.8
26/01:00am 13.1 12.4 13.1 100 0.0 NW 9 9 5 5 1024.2 1024.2 4.8
26/12:30am 13.1 12.9 13.1 100 0.0 NW 6 7 3 4 1024.4 1024.4 4.8
26/12:00am 13.3 12.6 13.3 100 0.0 NW 9 11 5 6 1024.5 1024.5 4.8
 
Date/Time
EST
Temp
°C
App
Temp
°C
Dew
Point
°C
Rel
Hum
%
Delta-T
°C
Wind Press
QNH
hPa
Press
MSL
hPa
Rain since
9am
mm
Dir  Spd
km/h
Gust
km/h
Spd
kts
Gust
kts
25/11:30pm 13.1 12.7 13.1 100 0.0 NW 7 9 4 5 1024.7 1024.7 4.8
25/11:15pm 13.2 12.5 13.2 100 0.0 W 9 11 5 6 1024.8 1024.8 4.8
25/11:02pm 13.1 12.9 13.1 100 0.0 S 6 7 3 4 1024.9 1024.9 4.8
25/11:00pm 13.3 13.2 13.3 100 0.0 S 6 7 3 4 1024.9 1024.9 4.8
25/10:34pm 13.1 14.0 12.9 99 0.1 CALM 0 0 0 0 1024.8 1024.8 4.8
25/10:30pm 13.1 14.0 12.9 99 0.1 CALM 0 0 0 0 1024.8 1024.8 4.8
25/10:08pm 13.6 14.7 13.4 99 0.1 CALM 0 0 0 0 1024.8 1024.8 4.8
25/10:00pm 13.9 15.1 13.7 99 0.1 CALM 0 0 0 0 1024.8 1024.8 4.8
25/09:50pm 13.5 14.1 13.0 97 0.3 S 2 7 1 4 1024.8 1024.8 4.8
25/09:30pm 14.5 14.5 14.3 99 0.1 S 7 9 4 5 1024.7 1024.7 4.8
25/09:00pm 14.4 15.7 14.2 99 0.1 CALM 0 0 0 0 1024.9 1024.9 4.8
25/08:30pm 14.3 14.1 13.5 95 0.4 SSW 7 7 4 4 1024.6 1024.6 4.8
25/08:00pm 16.3 18.0 15.2 93 0.6 CALM 0 0 0 0 1024.5 1024.5 4.8
25/07:30pm 16.8 18.7 15.8 94 0.6 CALM 0 0 0 0 1024.4 1024.4 4.8
25/07:00pm 16.8 18.8 16.0 95 0.5 CALM 0 0 0 0 1024.3 1024.3 4.8
25/06:30pm 16.7 18.0 16.1 96 0.4 SSW 4 6 2 3 1024.1 1024.1 4.8
25/06:00pm 17.5 17.8 16.0 91 0.9 SSW 9 9 5 5 1023.7 1023.7 4.8
25/05:30pm 17.9 18.7 16.4 91 0.9 S 7 7 4 4 1023.5 1023.5 4.8
25/05:00pm 18.4 19.2 15.8 85 1.5 S 6 7 3 4 1023.3 1023.3 4.8
25/04:30pm 19.0 19.4 16.2 84 1.7 S 9 11 5 6 1023.2 1023.2 4.8
25/04:00pm 19.4 20.0 15.7 79 2.2 S 7 9 4 5 1022.9 1022.9 4.8
25/03:30pm 19.7 19.9 15.8 78 2.3 SSW 9 13 5 7 1022.9 1022.9 4.8
25/03:00pm 19.5 19.9 16.2 81 2.0 SSW 9 11 5 6 1023.0 1023.0 4.8
25/02:30pm 19.2 19.5 16.1 82 1.8 SW 9 11 5 6 1023.4 1023.4 4.8

Latest Capital City Observations: Canberra | Sydney | Melbourne | Brisbane | Adelaide | Perth | Hobart | Darwin

Other formats

Comma delimited format used in spreadsheet applications
http://www.bom.gov.au/fwo/IDQ60901/IDQ60901.94568.axf

JavaScript Object Notation format (JSON) in row-major order
http://www.bom.gov.au/fwo/IDQ60901/IDQ60901.94568.json

Data quality

Most of these data are generated automatically and are frequently updated. Quality checks on data are not normally performed. It is possible for incorrect values to appear. Refer to information at About Latest Weather Observations and please check the disclaimer before using these data.